sensor_id;sensor_type;location;lat;lon;timestamp;P1;durP1;ratioP1;P2;durP2;ratioP2
20792;SDS011;10556;-33.662;151.094;2024-01-11T00:03:05;4.50;;;1.60;;
20792;SDS011;10556;-33.662;151.094;2024-01-11T00:08:07;4.03;;;1.55;;
20792;SDS011;10556;-33.662;151.094;2024-01-11T00:13:13;2.92;;;1.33;;
20792;SDS011;10556;-33.662;151.094;2024-01-11T00:18:16;3.50;;;1.63;;
20792;SDS011;10556;-33.662;151.094;2024-01-11T00:23:18;2.85;;;1.30;;
20792;SDS011;10556;-33.662;151.094;2024-01-11T00:28:22;3.15;;;1.33;;
20792;SDS011;10556;-33.662;151.094;2024-01-11T00:33:25;2.47;;;0.90;;
20792;SDS011;10556;-33.662;151.094;2024-01-11T00:38:27;2.65;;;1.08;;
20792;SDS011;10556;-33.662;151.094;2024-01-11T00:43:31;4.28;;;1.33;;
20792;SDS011;10556;-33.662;151.094;2024-01-11T00:48:34;4.97;;;1.42;;
20792;SDS011;10556;-33.662;151.094;2024-01-11T00:53:36;2.30;;;1.15;;
20792;SDS011;10556;-33.662;151.094;2024-01-11T00:58:41;5.60;;;1.10;;
20792;SDS011;10556;-33.662;151.094;2024-01-11T01:03:43;4.78;;;1.15;;
20792;SDS011;10556;-33.662;151.094;2024-01-11T01:08:45;2.47;;;0.90;;
20792;SDS011;10556;-33.662;151.094;2024-01-11T01:13:50;3.97;;;1.38;;
20792;SDS011;10556;-33.662;151.094;2024-01-11T01:18:52;5.28;;;1.30;;
20792;SDS011;10556;-33.662;151.094;2024-01-11T01:23:55;3.35;;;1.30;;
20792;SDS011;10556;-33.662;151.094;2024-01-11T01:28:59;2.50;;;0.80;;
20792;SDS011;10556;-33.662;151.094;2024-01-11T01:34:02;3.85;;;1.00;;
20792;SDS011;10556;-33.662;151.094;2024-01-11T01:39:04;2.75;;;0.88;;
20792;SDS011;10556;-33.662;151.094;2024-01-11T01:44:09;2.67;;;0.90;;
20792;SDS011;10556;-33.662;151.094;2024-01-11T01:49:11;3.25;;;1.25;;
20792;SDS011;10556;-33.662;151.094;2024-01-11T01:54:15;3.40;;;0.93;;
20792;SDS011;10556;-33.662;151.094;2024-01-11T01:59:21;4.15;;;0.90;;
20792;SDS011;10556;-33.662;151.094;2024-01-11T02:04:25;4.25;;;1.20;;
20792;SDS011;10556;-33.662;151.094;2024-01-11T02:09:28;3.42;;;0.98;;
20792;SDS011;10556;-33.662;151.094;2024-01-11T02:14:35;2.92;;;1.10;;
20792;SDS011;10556;-33.662;151.094;2024-01-11T02:19:39;2.88;;;1.20;;
20792;SDS011;10556;-33.662;151.094;2024-01-11T02:24:44;4.57;;;1.20;;
20792;SDS011;10556;-33.662;151.094;2024-01-11T02:29:47;2.67;;;0.73;;
20792;SDS011;10556;-33.662;151.094;2024-01-11T02:34:49;2.25;;;0.80;;
20792;SDS011;10556;-33.662;151.094;2024-01-11T02:39:54;6.32;;;1.00;;
20792;SDS011;10556;-33.662;151.094;2024-01-11T02:44:57;3.67;;;0.88;;
20792;SDS011;10556;-33.662;151.094;2024-01-11T02:50:00;4.80;;;1.05;;
20792;SDS011;10556;-33.662;151.094;2024-01-11T02:55:04;2.90;;;0.82;;
20792;SDS011;10556;-33.662;151.094;2024-01-11T03:00:09;4.95;;;1.00;;
20792;SDS011;10556;-33.662;151.094;2024-01-11T03:05:12;5.07;;;0.90;;
20792;SDS011;10556;-33.662;151.094;2024-01-11T03:10:16;5.13;;;1.10;;
20792;SDS011;10556;-33.662;151.094;2024-01-11T03:15:19;4.30;;;0.90;;
20792;SDS011;10556;-33.662;151.094;2024-01-11T03:20:21;3.95;;;1.20;;
20792;SDS011;10556;-33.662;151.094;2024-01-11T03:25:27;4.82;;;0.95;;
20792;SDS011;10556;-33.662;151.094;2024-01-11T03:30:31;4.30;;;1.20;;
20792;SDS011;10556;-33.662;151.094;2024-01-11T03:35:34;3.70;;;0.98;;
20792;SDS011;10556;-33.662;151.094;2024-01-11T03:40:38;4.90;;;0.70;;
20792;SDS011;10556;-33.662;151.094;2024-01-11T03:45:40;3.67;;;0.80;;
20792;SDS011;10556;-33.662;151.094;2024-01-11T03:50:44;2.83;;;0.85;;
20792;SDS011;10556;-33.662;151.094;2024-01-11T03:55:50;2.03;;;0.90;;
20792;SDS011;10556;-33.662;151.094;2024-01-11T04:00:52;5.47;;;0.75;;
20792;SDS011;10556;-33.662;151.094;2024-01-11T04:05:55;5.53;;;1.17;;
20792;SDS011;10556;-33.662;151.094;2024-01-11T04:10:59;4.18;;;1.17;;
20792;SDS011;10556;-33.662;151.094;2024-01-11T04:16:04;3.85;;;0.80;;
20792;SDS011;10556;-33.662;151.094;2024-01-11T04:21:07;3.92;;;0.90;;
20792;SDS011;10556;-33.662;151.094;2024-01-11T04:26:22;5.90;;;1.10;;
20792;SDS011;10556;-33.662;151.094;2024-01-11T04:31:24;3.33;;;1.00;;
20792;SDS011;10556;-33.662;151.094;2024-01-11T04:36:28;3.85;;;0.90;;
20792;SDS011;10556;-33.662;151.094;2024-01-11T04:41:32;7.57;;;1.35;;
20792;SDS011;10556;-33.662;151.094;2024-01-11T04:46:36;4.28;;;1.00;;
20792;SDS011;10556;-33.662;151.094;2024-01-11T04:51:39;3.40;;;0.85;;
20792;SDS011;10556;-33.662;151.094;2024-01-11T04:56:44;2.95;;;0.80;;
20792;SDS011;10556;-33.662;151.094;2024-01-11T05:01:46;3.63;;;0.90;;
20792;SDS011;10556;-33.662;151.094;2024-01-11T05:06:51;5.05;;;0.90;;
20792;SDS011;10556;-33.662;151.094;2024-01-11T05:11:55;5.30;;;1.08;;
20792;SDS011;10556;-33.662;151.094;2024-01-11T05:17:03;4.93;;;1.10;;
20792;SDS011;10556;-33.662;151.094;2024-01-11T05:22:05;5.20;;;0.88;;
20792;SDS011;10556;-33.662;151.094;2024-01-11T05:27:10;3.88;;;1.20;;
20792;SDS011;10556;-33.662;151.094;2024-01-11T05:32:12;4.65;;;0.90;;
20792;SDS011;10556;-33.662;151.094;2024-01-11T05:37:14;8.32;;;1.20;;
20792;SDS011;10556;-33.662;151.094;2024-01-11T05:42:20;4.03;;;1.00;;
20792;SDS011;10556;-33.662;151.094;2024-01-11T05:47:22;5.47;;;1.10;;
20792;SDS011;10556;-33.662;151.094;2024-01-11T05:52:25;4.30;;;1.13;;
20792;SDS011;10556;-33.662;151.094;2024-01-11T05:57:29;5.68;;;1.15;;
20792;SDS011;10556;-33.662;151.094;2024-01-11T06:02:32;2.15;;;0.60;;
20792;SDS011;10556;-33.662;151.094;2024-01-11T06:07:34;3.70;;;0.70;;
20792;SDS011;10556;-33.662;151.094;2024-01-11T06:12:38;6.45;;;1.05;;
20792;SDS011;10556;-33.662;151.094;2024-01-11T06:17:41;5.32;;;1.00;;
20792;SDS011;10556;-33.662;151.094;2024-01-11T06:22:45;7.38;;;1.10;;
20792;SDS011;10556;-33.662;151.094;2024-01-11T06:27:52;10.50;;;1.48;;
20792;SDS011;10556;-33.662;151.094;2024-01-11T06:32:54;5.65;;;0.85;;
20792;SDS011;10556;-33.662;151.094;2024-01-11T06:37:57;7.13;;;1.05;;
20792;SDS011;10556;-33.662;151.094;2024-01-11T06:43:01;3.92;;;0.90;;
20792;SDS011;10556;-33.662;151.094;2024-01-11T06:48:05;5.13;;;1.10;;
20792;SDS011;10556;-33.662;151.094;2024-01-11T06:53:08;3.97;;;0.65;;
20792;SDS011;10556;-33.662;151.094;2024-01-11T06:58:12;5.15;;;0.90;;
20792;SDS011;10556;-33.662;151.094;2024-01-11T07:03:14;2.25;;;0.73;;
20792;SDS011;10556;-33.662;151.094;2024-01-11T07:08:18;3.78;;;0.65;;
20792;SDS011;10556;-33.662;151.094;2024-01-11T07:13:23;3.70;;;0.85;;
20792;SDS011;10556;-33.662;151.094;2024-01-11T07:18:25;1.67;;;0.70;;
20792;SDS011;10556;-33.662;151.094;2024-01-11T07:23:28;2.75;;;0.63;;
20792;SDS011;10556;-33.662;151.094;2024-01-11T07:28:33;6.40;;;0.85;;
20792;SDS011;10556;-33.662;151.094;2024-01-11T07:33:35;7.78;;;1.05;;
20792;SDS011;10556;-33.662;151.094;2024-01-11T07:38:39;6.80;;;1.17;;
20792;SDS011;10556;-33.662;151.094;2024-01-11T07:43:43;6.78;;;1.00;;
20792;SDS011;10556;-33.662;151.094;2024-01-11T07:48:45;4.07;;;0.80;;
20792;SDS011;10556;-33.662;151.094;2024-01-11T07:53:48;6.70;;;0.98;;
20792;SDS011;10556;-33.662;151.094;2024-01-11T07:58:52;4.85;;;0.90;;
20792;SDS011;10556;-33.662;151.094;2024-01-11T08:03:55;4.82;;;0.80;;
20792;SDS011;10556;-33.662;151.094;2024-01-11T08:08:57;3.58;;;0.60;;
20792;SDS011;10556;-33.662;151.094;2024-01-11T08:14:02;7.25;;;1.00;;
20792;SDS011;10556;-33.662;151.094;2024-01-11T08:19:05;3.20;;;0.82;;
20792;SDS011;10556;-33.662;151.094;2024-01-11T08:24:07;5.07;;;0.90;;
20792;SDS011;10556;-33.662;151.094;2024-01-11T08:29:12;4.23;;;0.70;;
20792;SDS011;10556;-33.662;151.094;2024-01-11T08:34:15;5.83;;;1.03;;
20792;SDS011;10556;-33.662;151.094;2024-01-11T08:39:17;4.73;;;0.70;;
20792;SDS011;10556;-33.662;151.094;2024-01-11T08:44:22;6.70;;;0.80;;
20792;SDS011;10556;-33.662;151.094;2024-01-11T08:49:24;4.47;;;0.90;;
20792;SDS011;10556;-33.662;151.094;2024-01-11T08:54:27;6.40;;;1.10;;
20792;SDS011;10556;-33.662;151.094;2024-01-11T08:59:31;3.53;;;0.63;;
20792;SDS011;10556;-33.662;151.094;2024-01-11T09:04:34;5.73;;;0.77;;
20792;SDS011;10556;-33.662;151.094;2024-01-11T09:09:36;6.70;;;1.17;;
20792;SDS011;10556;-33.662;151.094;2024-01-11T09:14:41;5.20;;;0.90;;
20792;SDS011;10556;-33.662;151.094;2024-01-11T09:19:43;3.83;;;0.70;;
20792;SDS011;10556;-33.662;151.094;2024-01-11T09:24:46;8.53;;;1.10;;
20792;SDS011;10556;-33.662;151.094;2024-01-11T09:29:50;6.73;;;1.67;;
20792;SDS011;10556;-33.662;151.094;2024-01-11T09:34:52;7.33;;;1.30;;
20792;SDS011;10556;-33.662;151.094;2024-01-11T09:39:55;9.53;;;1.10;;
20792;SDS011;10556;-33.662;151.094;2024-01-11T09:44:59;8.77;;;1.50;;
20792;SDS011;10556;-33.662;151.094;2024-01-11T09:50:03;10.73;;;1.23;;
20792;SDS011;10556;-33.662;151.094;2024-01-11T09:55:08;4.87;;;1.03;;
20792;SDS011;10556;-33.662;151.094;2024-01-11T10:00:13;6.37;;;0.90;;
20792;SDS011;10556;-33.662;151.094;2024-01-11T10:05:19;7.07;;;0.80;;
20792;SDS011;10556;-33.662;151.094;2024-01-11T10:10:21;4.90;;;0.80;;
20792;SDS011;10556;-33.662;151.094;2024-01-11T10:15:26;11.30;;;1.43;;
20792;SDS011;10556;-33.662;151.094;2024-01-11T10:20:28;7.00;;;1.10;;
20792;SDS011;10556;-33.662;151.094;2024-01-11T10:25:31;9.27;;;1.40;;
20792;SDS011;10556;-33.662;151.094;2024-01-11T10:30:36;9.07;;;0.90;;
20792;SDS011;10556;-33.662;151.094;2024-01-11T10:35:39;8.20;;;1.30;;
20792;SDS011;10556;-33.662;151.094;2024-01-11T10:40:42;10.50;;;1.33;;
20792;SDS011;10556;-33.662;151.094;2024-01-11T10:45:48;4.40;;;0.90;;
20792;SDS011;10556;-33.662;151.094;2024-01-11T10:50:54;4.17;;;1.17;;
20792;SDS011;10556;-33.662;151.094;2024-01-11T10:55:59;9.37;;;1.50;;
20792;SDS011;10556;-33.662;151.094;2024-01-11T11:01:06;4.50;;;0.90;;
20792;SDS011;10556;-33.662;151.094;2024-01-11T11:06:10;5.40;;;1.00;;
20792;SDS011;10556;-33.662;151.094;2024-01-11T11:11:13;10.93;;;1.30;;
20792;SDS011;10556;-33.662;151.094;2024-01-11T11:16:18;9.57;;;1.10;;
20792;SDS011;10556;-33.662;151.094;2024-01-11T11:21:21;8.73;;;1.20;;
20792;SDS011;10556;-33.662;151.094;2024-01-11T11:26:25;6.47;;;0.93;;
20792;SDS011;10556;-33.662;151.094;2024-01-11T11:31:43;8.57;;;1.23;;
20792;SDS011;10556;-33.662;151.094;2024-01-11T11:36:46;13.10;;;1.40;;
20792;SDS011;10556;-33.662;151.094;2024-01-11T11:41:51;4.00;;;1.20;;
20792;SDS011;10556;-33.662;151.094;2024-01-11T11:46:56;10.77;;;1.23;;
20792;SDS011;10556;-33.662;151.094;2024-01-11T11:52:20;4.17;;;1.33;;
20792;SDS011;10556;-33.662;151.094;2024-01-11T11:57:22;6.10;;;1.20;;
20792;SDS011;10556;-33.662;151.094;2024-01-11T12:02:29;8.33;;;1.53;;
20792;SDS011;10556;-33.662;151.094;2024-01-11T12:07:31;8.93;;;1.70;;
20792;SDS011;10556;-33.662;151.094;2024-01-11T12:12:34;7.07;;;1.57;;
20792;SDS011;10556;-33.662;151.094;2024-01-11T12:17:40;11.87;;;1.67;;
20792;SDS011;10556;-33.662;151.094;2024-01-11T12:22:44;7.47;;;1.43;;
20792;SDS011;10556;-33.662;151.094;2024-01-11T12:27:48;8.57;;;1.30;;
20792;SDS011;10556;-33.662;151.094;2024-01-11T12:32:53;11.27;;;1.70;;
20792;SDS011;10556;-33.662;151.094;2024-01-11T12:37:55;13.27;;;2.17;;
20792;SDS011;10556;-33.662;151.094;2024-01-11T12:43:00;9.43;;;2.20;;
20792;SDS011;10556;-33.662;151.094;2024-01-11T12:48:07;6.77;;;1.70;;
20792;SDS011;10556;-33.662;151.094;2024-01-11T12:53:11;11.23;;;1.73;;
20792;SDS011;10556;-33.662;151.094;2024-01-11T12:58:14;9.27;;;2.00;;
20792;SDS011;10556;-33.662;151.094;2024-01-11T13:03:23;9.10;;;1.70;;
20792;SDS011;10556;-33.662;151.094;2024-01-11T13:08:26;11.20;;;1.47;;
20792;SDS011;10556;-33.662;151.094;2024-01-11T13:13:29;7.50;;;1.50;;
20792;SDS011;10556;-33.662;151.094;2024-01-11T13:18:34;6.23;;;2.03;;
20792;SDS011;10556;-33.662;151.094;2024-01-11T13:23:37;5.10;;;1.70;;
20792;SDS011;10556;-33.662;151.094;2024-01-11T13:28:39;18.00;;;2.37;;
20792;SDS011;10556;-33.662;151.094;2024-01-11T13:33:47;8.73;;;1.67;;
20792;SDS011;10556;-33.662;151.094;2024-01-11T13:38:49;10.33;;;2.23;;
20792;SDS011;10556;-33.662;151.094;2024-01-11T13:43:53;8.13;;;2.30;;
20792;SDS011;10556;-33.662;151.094;2024-01-11T13:49:06;11.20;;;2.07;;
20792;SDS011;10556;-33.662;151.094;2024-01-11T13:54:09;17.23;;;2.63;;
20792;SDS011;10556;-33.662;151.094;2024-01-11T13:59:11;12.40;;;2.30;;
20792;SDS011;10556;-33.662;151.094;2024-01-11T14:04:16;9.43;;;2.27;;
20792;SDS011;10556;-33.662;151.094;2024-01-11T14:09:19;16.43;;;2.53;;
20792;SDS011;10556;-33.662;151.094;2024-01-11T14:14:21;15.07;;;2.47;;
20792;SDS011;10556;-33.662;151.094;2024-01-11T14:19:27;8.47;;;1.70;;
20792;SDS011;10556;-33.662;151.094;2024-01-11T14:24:29;14.47;;;2.57;;
20792;SDS011;10556;-33.662;151.094;2024-01-11T14:29:33;13.53;;;2.20;;
20792;SDS011;10556;-33.662;151.094;2024-01-11T14:34:38;11.60;;;2.17;;
20792;SDS011;10556;-33.662;151.094;2024-01-11T14:39:41;20.83;;;2.27;;
20792;SDS011;10556;-33.662;151.094;2024-01-11T14:44:44;15.37;;;2.90;;
20792;SDS011;10556;-33.662;151.094;2024-01-11T14:49:51;20.70;;;3.20;;
20792;SDS011;10556;-33.662;151.094;2024-01-11T14:54:56;16.47;;;2.90;;
20792;SDS011;10556;-33.662;151.094;2024-01-11T14:59:59;6.67;;;2.30;;
20792;SDS011;10556;-33.662;151.094;2024-01-11T15:05:05;17.20;;;3.07;;
20792;SDS011;10556;-33.662;151.094;2024-01-11T15:10:10;16.73;;;3.27;;
20792;SDS011;10556;-33.662;151.094;2024-01-11T15:15:12;11.93;;;2.90;;
20792;SDS011;10556;-33.662;151.094;2024-01-11T15:20:17;9.00;;;2.60;;
20792;SDS011;10556;-33.662;151.094;2024-01-11T15:25:21;13.93;;;3.10;;
20792;SDS011;10556;-33.662;151.094;2024-01-11T15:30:23;8.87;;;2.23;;
20792;SDS011;10556;-33.662;151.094;2024-01-11T15:35:32;11.97;;;2.97;;
20792;SDS011;10556;-33.662;151.094;2024-01-11T15:40:35;19.53;;;3.90;;
20792;SDS011;10556;-33.662;151.094;2024-01-11T15:45:39;13.20;;;2.73;;
20792;SDS011;10556;-33.662;151.094;2024-01-11T15:50:47;15.53;;;3.63;;
20792;SDS011;10556;-33.662;151.094;2024-01-11T15:55:49;15.83;;;3.73;;
20792;SDS011;10556;-33.662;151.094;2024-01-11T16:00:52;16.07;;;3.37;;
20792;SDS011;10556;-33.662;151.094;2024-01-11T16:05:58;14.10;;;3.70;;
20792;SDS011;10556;-33.662;151.094;2024-01-11T16:11:03;19.90;;;2.80;;
20792;SDS011;10556;-33.662;151.094;2024-01-11T16:16:06;19.87;;;3.50;;
20792;SDS011;10556;-33.662;151.094;2024-01-11T16:21:13;18.60;;;3.23;;
20792;SDS011;10556;-33.662;151.094;2024-01-11T16:26:16;20.90;;;3.87;;
20792;SDS011;10556;-33.662;151.094;2024-01-11T16:31:18;18.63;;;3.50;;
20792;SDS011;10556;-33.662;151.094;2024-01-11T16:36:29;21.50;;;3.40;;
20792;SDS011;10556;-33.662;151.094;2024-01-11T16:41:36;10.03;;;3.30;;
20792;SDS011;10556;-33.662;151.094;2024-01-11T16:46:39;20.97;;;3.43;;
20792;SDS011;10556;-33.662;151.094;2024-01-11T16:51:44;21.00;;;3.67;;
20792;SDS011;10556;-33.662;151.094;2024-01-11T16:56:52;14.03;;;2.67;;
20792;SDS011;10556;-33.662;151.094;2024-01-11T17:01:55;18.27;;;3.10;;
20792;SDS011;10556;-33.662;151.094;2024-01-11T17:07:01;25.17;;;3.43;;
20792;SDS011;10556;-33.662;151.094;2024-01-11T17:12:04;22.13;;;3.47;;
20792;SDS011;10556;-33.662;151.094;2024-01-11T17:17:07;10.53;;;3.00;;
20792;SDS011;10556;-33.662;151.094;2024-01-11T17:22:13;24.40;;;4.13;;
20792;SDS011;10556;-33.662;151.094;2024-01-11T17:27:15;19.23;;;3.80;;
20792;SDS011;10556;-33.662;151.094;2024-01-11T17:32:18;17.77;;;2.70;;
20792;SDS011;10556;-33.662;151.094;2024-01-11T17:37:22;21.07;;;2.90;;
20792;SDS011;10556;-33.662;151.094;2024-01-11T17:42:25;23.13;;;3.50;;
20792;SDS011;10556;-33.662;151.094;2024-01-11T17:47:27;16.47;;;3.37;;
20792;SDS011;10556;-33.662;151.094;2024-01-11T17:52:32;17.17;;;3.33;;
20792;SDS011;10556;-33.662;151.094;2024-01-11T17:57:34;20.20;;;3.53;;
20792;SDS011;10556;-33.662;151.094;2024-01-11T18:02:37;17.07;;;3.43;;
20792;SDS011;10556;-33.662;151.094;2024-01-11T18:07:42;16.53;;;2.87;;
20792;SDS011;10556;-33.662;151.094;2024-01-11T18:12:44;11.60;;;1.87;;
20792;SDS011;10556;-33.662;151.094;2024-01-11T18:17:46;8.00;;;1.77;;
20792;SDS011;10556;-33.662;151.094;2024-01-11T18:22:53;8.13;;;2.00;;
20792;SDS011;10556;-33.662;151.094;2024-01-11T18:27:56;11.30;;;1.90;;
20792;SDS011;10556;-33.662;151.094;2024-01-11T18:32:58;10.97;;;1.73;;
20792;SDS011;10556;-33.662;151.094;2024-01-11T18:38:03;14.40;;;2.00;;
20792;SDS011;10556;-33.662;151.094;2024-01-11T18:43:05;7.37;;;1.80;;
20792;SDS011;10556;-33.662;151.094;2024-01-11T18:48:07;9.20;;;1.63;;
20792;SDS011;10556;-33.662;151.094;2024-01-11T18:53:12;15.30;;;2.77;;
20792;SDS011;10556;-33.662;151.094;2024-01-11T18:58:14;5.80;;;1.30;;
20792;SDS011;10556;-33.662;151.094;2024-01-11T19:03:17;7.07;;;1.33;;
20792;SDS011;10556;-33.662;151.094;2024-01-11T19:08:21;7.03;;;1.23;;
20792;SDS011;10556;-33.662;151.094;2024-01-11T19:13:23;7.73;;;1.60;;
20792;SDS011;10556;-33.662;151.094;2024-01-11T19:18:26;6.13;;;1.00;;
20792;SDS011;10556;-33.662;151.094;2024-01-11T19:23:30;7.80;;;1.30;;
20792;SDS011;10556;-33.662;151.094;2024-01-11T19:28:33;12.93;;;1.27;;
20792;SDS011;10556;-33.662;151.094;2024-01-11T19:33:35;4.53;;;1.30;;
20792;SDS011;10556;-33.662;151.094;2024-01-11T19:38:39;7.17;;;1.70;;
20792;SDS011;10556;-33.662;151.094;2024-01-11T19:43:42;6.07;;;1.40;;
20792;SDS011;10556;-33.662;151.094;2024-01-11T19:48:44;9.27;;;1.83;;
20792;SDS011;10556;-33.662;151.094;2024-01-11T19:53:49;6.67;;;1.70;;
20792;SDS011;10556;-33.662;151.094;2024-01-11T19:58:51;9.10;;;2.17;;
20792;SDS011;10556;-33.662;151.094;2024-01-11T20:03:53;5.73;;;1.37;;
20792;SDS011;10556;-33.662;151.094;2024-01-11T20:08:58;8.93;;;1.90;;
20792;SDS011;10556;-33.662;151.094;2024-01-11T20:14:00;7.90;;;1.30;;
20792;SDS011;10556;-33.662;151.094;2024-01-11T20:19:03;12.60;;;1.77;;
20792;SDS011;10556;-33.662;151.094;2024-01-11T20:24:07;10.30;;;1.33;;
20792;SDS011;10556;-33.662;151.094;2024-01-11T20:29:10;13.10;;;1.73;;
20792;SDS011;10556;-33.662;151.094;2024-01-11T20:34:12;8.37;;;1.33;;
20792;SDS011;10556;-33.662;151.094;2024-01-11T20:39:16;7.20;;;1.07;;
20792;SDS011;10556;-33.662;151.094;2024-01-11T20:44:19;3.80;;;1.10;;
20792;SDS011;10556;-33.662;151.094;2024-01-11T20:49:21;7.13;;;1.40;;
20792;SDS011;10556;-33.662;151.094;2024-01-11T20:54:26;9.73;;;1.50;;
20792;SDS011;10556;-33.662;151.094;2024-01-11T20:59:28;8.83;;;1.33;;
20792;SDS011;10556;-33.662;151.094;2024-01-11T21:04:32;11.23;;;1.40;;
20792;SDS011;10556;-33.662;151.094;2024-01-11T21:09:36;13.07;;;1.90;;
20792;SDS011;10556;-33.662;151.094;2024-01-11T21:14:38;13.07;;;2.47;;
20792;SDS011;10556;-33.662;151.094;2024-01-11T21:19:41;11.90;;;1.57;;
20792;SDS011;10556;-33.662;151.094;2024-01-11T21:24:45;9.63;;;1.33;;
20792;SDS011;10556;-33.662;151.094;2024-01-11T21:29:47;15.27;;;1.80;;
20792;SDS011;10556;-33.662;151.094;2024-01-11T21:34:50;12.73;;;1.67;;
20792;SDS011;10556;-33.662;151.094;2024-01-11T21:39:54;8.30;;;1.10;;
20792;SDS011;10556;-33.662;151.094;2024-01-11T21:44:58;12.17;;;1.90;;
20792;SDS011;10556;-33.662;151.094;2024-01-11T21:50:01;9.60;;;2.23;;
20792;SDS011;10556;-33.662;151.094;2024-01-11T21:55:07;8.80;;;1.27;;
20792;SDS011;10556;-33.662;151.094;2024-01-11T22:00:09;9.17;;;1.37;;
20792;SDS011;10556;-33.662;151.094;2024-01-11T22:05:14;7.83;;;1.20;;
20792;SDS011;10556;-33.662;151.094;2024-01-11T22:10:18;11.80;;;1.17;;
20792;SDS011;10556;-33.662;151.094;2024-01-11T22:15:22;7.57;;;1.47;;
20792;SDS011;10556;-33.662;151.094;2024-01-11T22:20:24;5.83;;;1.17;;
20792;SDS011;10556;-33.662;151.094;2024-01-11T22:25:30;11.17;;;1.47;;
20792;SDS011;10556;-33.662;151.094;2024-01-11T22:30:33;4.50;;;1.10;;
20792;SDS011;10556;-33.662;151.094;2024-01-11T22:35:35;7.60;;;1.30;;
20792;SDS011;10556;-33.662;151.094;2024-01-11T22:40:40;4.67;;;1.20;;
20792;SDS011;10556;-33.662;151.094;2024-01-11T22:45:42;8.17;;;1.30;;
20792;SDS011;10556;-33.662;151.094;2024-01-11T22:50:45;6.35;;;1.13;;
20792;SDS011;10556;-33.662;151.094;2024-01-11T22:55:49;9.82;;;1.13;;
20792;SDS011;10556;-33.662;151.094;2024-01-11T23:00:52;9.30;;;1.48;;
20792;SDS011;10556;-33.662;151.094;2024-01-11T23:05:54;9.40;;;0.95;;
20792;SDS011;10556;-33.662;151.094;2024-01-11T23:10:58;6.78;;;1.02;;
20792;SDS011;10556;-33.662;151.094;2024-01-11T23:16:01;8.10;;;1.20;;
20792;SDS011;10556;-33.662;151.094;2024-01-11T23:21:04;9.60;;;1.77;;
20792;SDS011;10556;-33.662;151.094;2024-01-11T23:26:08;7.57;;;1.17;;
20792;SDS011;10556;-33.662;151.094;2024-01-11T23:31:11;3.58;;;1.00;;
20792;SDS011;10556;-33.662;151.094;2024-01-11T23:36:13;7.50;;;1.08;;
20792;SDS011;10556;-33.662;151.094;2024-01-11T23:41:19;4.78;;;0.73;;
20792;SDS011;10556;-33.662;151.094;2024-01-11T23:46:21;4.45;;;0.68;;
20792;SDS011;10556;-33.662;151.094;2024-01-11T23:51:24;8.18;;;1.83;;
20792;SDS011;10556;-33.662;151.094;2024-01-11T23:56:29;4.28;;;0.90;;
